Time;durP1;ratioP1;P1;durP2;ratioP2;P2;SDS_P1;SDS_P2;PMS_P1;PMS_P2;Temp;Humidity;BMP_temperature;BMP_pressure;BME280_temperature;BME280_humidity;BME280_pressure;Samples;Min_cycle;Max_cycle;Signal;HPM_P1;HPM_P2
2020/12/14 00:01:18;;;;;;;22.38;11.95;;;22.10;35.40;;;;;;6175853;28;84300;-47
2020/12/14 00:04:19;;;;;;;19.35;12.52;;;22.10;35.50;;;;;;6173082;27;83395;-47
2020/12/14 00:07:20;;;;;;;19.27;11.75;;;22.10;35.40;;;;;;6176992;28;84205;-48
2020/12/14 00:10:21;;;;;;;19.85;12.02;;;22.00;35.40;;;;;;6177323;27;85166;-47
2020/12/14 00:13:21;;;;;;;20.58;11.45;;;22.00;35.40;;;;;;6177044;28;84176;-49
2020/12/14 00:16:22;;;;;;;20.17;11.93;;;22.00;35.40;;;;;;6176900;28;83799;-48
2020/12/14 00:19:22;;;;;;;19.70;12.13;;;22.00;35.50;;;;;;6177146;28;83400;-47
2020/12/14 00:22:23;;;;;;;19.77;11.60;;;22.10;35.30;;;;;;6182551;27;88494;-49
2020/12/14 00:25:23;;;;;;;18.27;10.73;;;22.10;35.30;;;;;;6176008;28;84203;-48
2020/12/14 00:28:24;;;;;;;17.77;10.68;;;22.10;35.30;;;;;;6177293;27;84187;-46
2020/12/14 00:31:24;;;;;;;18.60;10.02;;;22.00;35.90;;;;;;6176151;28;83397;-48
2020/12/14 00:34:25;;;;;;;16.23;10.32;;;22.00;35.20;;;;;;6177351;27;83336;-47
2020/12/14 00:37:25;;;;;;;17.33;9.90;;;22.00;35.30;;;;;;6188515;28;83774;-47
2020/12/14 00:40:29;;;;;;;15.73;9.95;;;22.10;35.20;;;;;;6188863;28;81756;-50
2020/12/14 00:43:30;;;;;;;16.77;10.27;;;22.10;35.20;;;;;;6179681;28;80943;-47
2020/12/14 00:46:30;;;;;;;18.67;10.85;;;22.00;35.00;;;;;;6183912;27;83961;-51
2020/12/14 00:49:31;;;;;;;16.17;10.23;;;22.00;35.70;;;;;;6181474;28;83353;-50
2020/12/14 00:52:31;;;;;;;17.83;9.77;;;22.00;35.00;;;;;;6174183;27;84198;-47
2020/12/14 00:55:32;;;;;;;14.23;9.45;;;22.00;34.90;;;;;;6178804;28;82677;-48
2020/12/14 00:58:32;;;;;;;16.35;10.05;;;22.00;35.00;;;;;;6177460;27;80635;-47
2020/12/14 01:01:33;;;;;;;17.05;10.45;;;22.00;34.80;;;;;;6178673;28;83207;-47
2020/12/14 01:04:33;;;;;;;14.45;9.32;;;22.00;34.80;;;;;;6176675;28;83743;-49
2020/12/14 01:07:34;;;;;;;15.07;9.65;;;22.00;34.70;;;;;;6179565;28;82851;-48
2020/12/14 01:10:34;;;;;;;16.25;9.52;;;22.00;34.80;;;;;;6185311;27;81514;-51
2020/12/14 01:13:35;;;;;;;16.13;9.10;;;21.90;34.80;;;;;;6178496;28;81468;-48
2020/12/14 01:16:35;;;;;;;13.48;8.73;;;22.00;34.90;;;;;;6185281;27;80750;-47
2020/12/14 01:19:36;;;;;;;14.25;8.98;;;21.90;34.90;;;;;;6180304;28;83576;-47
2020/12/14 01:22:37;;;;;;;15.18;9.23;;;21.90;34.90;;;;;;6182380;28;80682;-48
2020/12/14 01:25:37;;;;;;;12.98;8.48;;;21.90;34.80;;;;;;6179651;28;82692;-47
2020/12/14 01:28:38;;;;;;;14.02;8.93;;;21.90;34.60;;;;;;6173889;27;85373;-46
2020/12/14 01:31:38;;;;;;;13.98;8.98;;;21.90;34.70;;;;;;6180592;28;81082;-46
2020/12/14 01:34:39;;;;;;;15.23;9.27;;;21.90;34.90;;;;;;6179025;27;81537;-47
2020/12/14 01:37:39;;;;;;;14.30;8.90;;;21.90;34.90;;;;;;6184153;28;80362;-46
2020/12/14 01:40:40;;;;;;;14.27;8.70;;;21.90;34.80;;;;;;6185903;27;80999;-47
2020/12/14 01:43:41;;;;;;;12.20;8.00;;;21.90;34.60;;;;;;6184137;28;80663;-46
2020/12/14 01:46:41;;;;;;;16.02;9.35;;;21.90;34.70;;;;;;6177017;28;80737;-49
2020/12/14 01:49:42;;;;;;;13.15;8.27;;;21.90;34.70;;;;;;6180599;28;80673;-47
2020/12/14 01:52:42;;;;;;;13.55;8.63;;;21.90;34.70;;;;;;6178316;28;81778;-47
2020/12/14 01:55:43;;;;;;;14.05;8.32;;;21.90;34.70;;;;;;6177378;28;81430;-47
2020/12/14 01:58:43;;;;;;;15.18;9.32;;;21.90;34.70;;;;;;6182389;27;80695;-47
2020/12/14 02:01:44;;;;;;;14.07;9.20;;;21.90;34.60;;;;;;6184525;28;80939;-47
2020/12/14 02:04:44;;;;;;;13.15;8.32;;;21.90;34.60;;;;;;6181799;27;81252;-46
2020/12/14 02:07:45;;;;;;;13.27;8.60;;;21.90;34.50;;;;;;6185798;28;80775;-49
2020/12/14 02:10:45;;;;;;;13.02;8.45;;;21.90;34.40;;;;;;6180100;28;83301;-46
2020/12/14 02:13:46;;;;;;;15.10;9.23;;;21.80;34.30;;;;;;6179053;28;80057;-46
2020/12/14 02:16:46;;;;;;;15.35;8.82;;;21.90;34.40;;;;;;6177893;28;81116;-46
2020/12/14 02:19:47;;;;;;;15.80;8.13;;;21.90;34.30;;;;;;6179902;28;80941;-46
2020/12/14 02:22:47;;;;;;;14.15;8.68;;;21.90;34.30;;;;;;6177236;27;83474;-46
2020/12/14 02:25:48;;;;;;;15.73;8.82;;;21.90;34.10;;;;;;6173517;28;80769;-48
2020/12/14 02:28:48;;;;;;;15.15;9.25;;;21.90;34.20;;;;;;6176624;27;80852;-48
2020/12/14 02:31:48;;;;;;;14.18;8.75;;;21.90;34.10;;;;;;6170199;28;80862;-46
2020/12/14 02:34:49;;;;;;;15.13;9.10;;;21.90;34.20;;;;;;6175690;28;83421;-49
2020/12/14 02:37:50;;;;;;;14.93;8.25;;;21.90;34.10;;;;;;6174890;28;82238;-48
2020/12/14 02:40:50;;;;;;;12.38;8.45;;;21.90;34.10;;;;;;6178234;27;81090;-51
2020/12/14 02:43:51;;;;;;;13.32;8.57;;;21.90;34.10;;;;;;6177767;28;80594;-48
2020/12/14 02:46:51;;;;;;;16.35;9.02;;;21.90;34.00;;;;;;6177614;27;80839;-46
2020/12/14 02:49:52;;;;;;;13.40;8.13;;;21.90;34.00;;;;;;6179729;28;80797;-48
2020/12/14 02:52:52;;;;;;;15.15;9.05;;;21.90;34.00;;;;;;6176181;27;80598;-51
2020/12/14 02:55:52;;;;;;;14.85;8.27;;;21.90;34.00;;;;;;6190941;28;81075;-47
2020/12/14 02:58:53;;;;;;;15.00;8.65;;;21.90;34.00;;;;;;6181535;27;80930;-51
2020/12/14 03:01:55;;;;;;;17.55;8.30;;;21.90;34.20;;;;;;6177282;28;80971;-46
2020/12/14 03:04:55;;;;;;;12.93;8.27;;;21.80;34.20;;;;;;6175520;27;83229;-46
2020/12/14 03:07:56;;;;;;;12.80;8.02;;;21.80;34.30;;;;;;6177639;28;80614;-47
2020/12/14 03:10:56;;;;;;;16.23;8.80;;;21.80;34.40;;;;;;6177449;27;80569;-50
2020/12/14 03:14:03;;;;;;;12.68;8.73;;;21.80;34.20;;;;;;6179462;28;82005;-47
2020/12/14 03:17:06;;;;;;;13.55;8.10;;;21.80;34.30;;;;;;6176540;28;80410;-49
2020/12/14 03:20:10;;;;;;;13.07;7.80;;;21.80;34.30;;;;;;6177435;28;81464;-46
2020/12/14 03:23:11;;;;;;;11.93;8.02;;;21.80;34.30;;;;;;6176690;28;80827;-48
2020/12/14 03:26:14;;;;;;;12.02;7.47;;;21.80;34.20;;;;;;6177845;28;82679;-47
2020/12/14 03:29:17;;;;;;;16.42;9.27;;;21.80;34.30;;;;;;6177345;28;80682;-48
2020/12/14 03:32:18;;;;;;;13.85;8.05;;;21.80;34.40;;;;;;6181653;28;80907;-46
2020/12/14 03:35:18;;;;;;;12.80;8.00;;;21.80;34.30;;;;;;6189288;27;80770;-47
2020/12/14 03:38:19;;;;;;;14.77;8.55;;;21.80;34.30;;;;;;6185623;28;80969;-48
2020/12/14 03:41:20;;;;;;;14.30;7.68;;;21.80;34.40;;;;;;6172395;28;81605;-47
2020/12/14 03:44:20;;;;;;;13.55;8.30;;;21.80;34.30;;;;;;6167209;28;82165;-47
2020/12/14 03:47:21;;;;;;;12.60;7.55;;;21.80;34.20;;;;;;6188596;27;80994;-47
2020/12/14 03:50:21;;;;;;;13.23;7.60;;;21.70;34.30;;;;;;6186090;28;80785;-48
2020/12/14 03:53:22;;;;;;;12.23;7.78;;;21.80;34.20;;;;;;6183197;27;81692;-46
2020/12/14 03:56:22;;;;;;;11.30;7.22;;;21.80;34.20;;;;;;6181719;28;80589;-49
2020/12/14 03:59:23;;;;;;;13.00;7.72;;;21.80;34.30;;;;;;6182347;27;80769;-48
2020/12/14 04:02:24;;;;;;;14.10;8.20;;;21.80;34.00;;;;;;6180554;28;80763;-49
2020/12/14 04:05:24;;;;;;;16.08;8.80;;;21.80;33.90;;;;;;6179092;28;80780;-46
2020/12/14 04:08:24;;;;;;;12.48;7.65;;;21.80;33.90;;;;;;6183632;28;80539;-47
2020/12/14 04:11:25;;;;;;;15.75;8.82;;;21.80;33.80;;;;;;6180060;27;80507;-47
2020/12/14 04:14:25;;;;;;;14.07;8.88;;;21.80;33.70;;;;;;6188328;28;81377;-47
2020/12/14 04:17:26;;;;;;;12.27;7.82;;;21.80;33.60;;;;;;6179666;27;80569;-49
2020/12/14 04:20:26;;;;;;;12.30;8.30;;;21.80;33.60;;;;;;6183530;28;81084;-49
2020/12/14 04:23:27;;;;;;;13.35;8.27;;;21.80;33.50;;;;;;6179546;27;83021;-49
2020/12/14 04:26:27;;;;;;;11.88;8.07;;;21.80;33.90;;;;;;6179848;28;82240;-48
2020/12/14 04:29:28;;;;;;;13.63;7.85;;;21.80;33.60;;;;;;6178959;28;81193;-48
2020/12/14 04:32:28;;;;;;;13.75;8.30;;;21.90;33.00;;;;;;6179017;28;81448;-47
2020/12/14 04:35:29;;;;;;;15.02;9.00;;;21.90;32.80;;;;;;6179917;27;80808;-50
2020/12/14 04:38:29;;;;;;;13.70;8.98;;;21.90;32.70;;;;;;6178799;28;80310;-47
2020/12/14 04:41:30;;;;;;;14.90;9.52;;;22.00;32.50;;;;;;6171308;28;80784;-47
2020/12/14 04:44:30;;;;;;;16.15;9.45;;;22.00;32.40;;;;;;6180655;28;81723;-47
2020/12/14 04:47:31;;;;;;;14.25;9.38;;;22.10;32.20;;;;;;6169244;28;80482;-47
2020/12/14 04:50:31;;;;;;;16.65;9.55;;;22.20;32.10;;;;;;6184873;28;81757;-48
2020/12/14 04:53:32;;;;;;;14.43;9.20;;;22.20;32.10;;;;;;6185443;28;83021;-48
2020/12/14 04:56:32;;;;;;;16.63;9.88;;;22.20;32.00;;;;;;6174389;27;81096;-47
2020/12/14 04:59:33;;;;;;;13.82;8.82;;;22.30;32.10;;;;;;6179926;28;80773;-47
2020/12/14 05:02:33;;;;;;;19.02;10.18;;;22.30;32.10;;;;;;6179376;27;80849;-47
2020/12/14 05:05:34;;;;;;;15.23;8.90;;;22.30;31.90;;;;;;6173670;28;83205;-49
2020/12/14 05:08:34;;;;;;;16.38;9.95;;;22.40;31.90;;;;;;6178871;27;82990;-48
2020/12/14 05:11:38;;;;;;;16.02;9.30;;;22.40;31.90;;;;;;6167153;28;83342;-47
2020/12/14 05:14:38;;;;;;;16.38;9.13;;;22.40;31.90;;;;;;6176898;28;89322;-48
2020/12/14 05:17:39;;;;;;;15.75;9.57;;;22.40;31.90;;;;;;6178434;27;80463;-48
2020/12/14 05:20:39;;;;;;;14.38;8.60;;;22.40;31.90;;;;;;6178326;28;81280;-48
2020/12/14 05:23:40;;;;;;;15.10;8.85;;;22.50;32.20;;;;;;6178572;28;80905;-50
2020/12/14 05:26:40;;;;;;;17.65;10.52;;;22.50;32.20;;;;;;6180448;28;81351;-50
2020/12/14 05:29:43;;;;;;;16.45;9.50;;;22.50;32.40;;;;;;6181185;28;83394;-47
2020/12/14 05:32:44;;;;;;;16.27;8.90;;;22.50;32.70;;;;;;6175878;28;83101;-45
2020/12/14 05:35:44;;;;;;;17.75;9.38;;;22.60;32.80;;;;;;6171210;27;81449;-49
2020/12/14 05:38:45;;;;;;;15.00;9.27;;;22.60;33.30;;;;;;6178141;28;80778;-45
2020/12/14 05:41:45;;;;;;;15.52;10.00;;;22.70;33.60;;;;;;6176461;27;81469;-45
2020/12/14 05:44:46;;;;;;;15.60;9.00;;;22.60;33.40;;;;;;6174154;28;83379;-44
2020/12/14 05:47:46;;;;;;;19.17;10.38;;;22.70;33.40;;;;;;6175309;27;82844;-46
2020/12/14 05:50:47;;;;;;;15.75;9.10;;;22.70;33.80;;;;;;6173866;28;83715;-45
2020/12/14 05:53:47;;;;;;;17.20;10.38;;;22.70;34.40;;;;;;6178106;28;82877;-47
2020/12/14 05:56:48;;;;;;;20.75;10.20;;;22.70;34.10;;;;;;6174536;28;83023;-45
2020/12/14 05:59:48;;;;;;;18.58;9.82;;;22.80;34.20;;;;;;6174376;27;83633;-45
2020/12/14 06:02:49;;;;;;;23.50;10.32;;;22.80;34.10;;;;;;6176046;28;83737;-45
2020/12/14 06:05:49;;;;;;;20.38;10.35;;;22.80;33.80;;;;;;6174403;27;83404;-47
2020/12/14 06:08:50;;;;;;;18.15;10.95;;;22.80;33.60;;;;;;6168786;28;83915;-46
2020/12/14 06:11:50;;;;;;;20.00;10.55;;;22.80;33.40;;;;;;6167872;28;83036;-47
2020/12/14 06:14:50;;;;;;;17.67;10.80;;;22.80;33.30;;;;;;6169556;28;83640;-48
2020/12/14 06:17:51;;;;;;;20.63;11.35;;;22.80;33.40;;;;;;6172395;28;86981;-50
2020/12/14 06:20:51;;;;;;;22.35;11.32;;;22.80;33.20;;;;;;6172121;28;84333;-49
2020/12/14 06:23:52;;;;;;;25.02;11.18;;;22.80;33.20;;;;;;6170541;27;82888;-46
2020/12/14 06:26:52;;;;;;;17.27;10.73;;;22.80;34.20;;;;;;6174727;28;83074;-48
2020/12/14 06:29:53;;;;;;;19.00;11.50;;;22.90;34.90;;;;;;6167373;28;87513;-49
2020/12/14 06:32:53;;;;;;;19.80;11.07;;;22.90;35.00;;;;;;6164277;28;83395;-45
2020/12/14 06:35:54;;;;;;;23.42;11.27;;;22.90;35.40;;;;;;6173651;28;83278;-45
2020/12/14 06:38:54;;;;;;;18.08;11.40;;;22.90;35.50;;;;;;6170729;28;83142;-47
2020/12/14 06:41:55;;;;;;;20.65;11.30;;;22.90;35.60;;;;;;6168626;28;84221;-47
2020/12/14 06:44:55;;;;;;;23.73;11.90;;;22.90;35.40;;;;;;6169997;27;83279;-46
2020/12/14 06:47:56;;;;;;;23.48;12.90;;;22.90;35.30;;;;;;6173148;28;84531;-45
2020/12/14 06:50:57;;;;;;;23.30;10.52;;;22.90;34.90;;;;;;6167562;28;83310;-46
2020/12/14 06:53:57;;;;;;;20.95;10.27;;;22.90;34.90;;;;;;6174572;28;83893;-45
2020/12/14 06:56:58;;;;;;;19.00;10.80;;;22.80;35.50;;;;;;6165471;28;83364;-45
2020/12/14 06:59:58;;;;;;;18.90;10.80;;;22.80;35.50;;;;;;6170317;28;83956;-46
2020/12/14 07:02:59;;;;;;;20.38;12.20;;;22.70;35.60;;;;;;6174004;28;84528;-48
2020/12/14 07:05:59;;;;;;;21.45;12.57;;;22.70;35.10;;;;;;6176032;27;83444;-46
2020/12/14 07:09:00;;;;;;;28.35;13.10;;;22.70;35.80;;;;;;6176122;28;83408;-47
2020/12/14 07:12:00;;;;;;;21.42;12.50;;;22.60;35.40;;;;;;6160070;27;86700;-46
2020/12/14 07:15:01;;;;;;;22.90;13.98;;;22.60;36.30;;;;;;6176887;28;83376;-48
2020/12/14 07:18:01;;;;;;;25.55;13.07;;;22.60;36.80;;;;;;6171249;28;83405;-47
2020/12/14 07:21:08;;;;;;;22.67;12.65;;;22.60;37.50;;;;;;6174343;28;83495;-46
2020/12/14 07:24:08;;;;;;;26.15;13.15;;;22.60;38.00;;;;;;6173213;28;83434;-48
2020/12/14 07:27:09;;;;;;;23.10;13.35;;;22.60;38.40;;;;;;6178399;28;84770;-47
2020/12/14 07:30:09;;;;;;;24.73;13.65;;;22.60;39.20;;;;;;6177101;27;83064;-49
2020/12/14 07:33:10;;;;;;;22.63;14.07;;;22.50;38.70;;;;;;6175567;28;82956;-54
2020/12/14 07:36:10;;;;;;;24.88;14.45;;;22.50;39.10;;;;;;6177766;27;85751;-47
2020/12/14 07:39:11;;;;;;;24.20;13.75;;;22.50;39.20;;;;;;6167206;28;83808;-46
2020/12/14 07:42:11;;;;;;;26.75;13.88;;;22.50;39.30;;;;;;6176105;27;83224;-45
2020/12/14 07:45:12;;;;;;;27.00;14.98;;;22.50;39.40;;;;;;6179014;28;83175;-45
2020/12/14 07:48:12;;;;;;;25.13;14.75;;;22.40;40.40;;;;;;6178032;28;83377;-46
2020/12/14 07:51:13;;;;;;;23.40;13.65;;;22.40;39.90;;;;;;6177479;28;83473;-47
2020/12/14 07:54:13;;;;;;;23.70;13.55;;;22.50;39.80;;;;;;6178109;28;83201;-44
2020/12/14 07:57:19;;;;;;;24.75;14.30;;;22.50;40.00;;;;;;6178102;28;85811;-46
2020/12/14 08:00:20;;;;;;;27.25;15.60;;;22.50;40.30;;;;;;6178248;27;83479;-46
2020/12/14 08:03:22;;;;;;;25.25;14.43;;;22.50;40.60;;;;;;6177272;28;84617;-45
2020/12/14 08:06:23;;;;;;;26.35;14.63;;;22.50;40.40;;;;;;6175720;28;83503;-45
2020/12/14 08:09:24;;;;;;;25.63;14.55;;;22.50;40.10;;;;;;6177214;28;85492;-45
2020/12/14 08:12:24;;;;;;;25.85;14.13;;;22.50;40.00;;;;;;6174497;28;83680;-44
2020/12/14 08:15:25;;;;;;;26.25;14.45;;;22.50;39.90;;;;;;6170670;28;83182;-46
2020/12/14 08:18:26;;;;;;;27.35;15.10;;;22.50;39.80;;;;;;6178707;27;83288;-47
2020/12/14 08:21:26;;;;;;;22.30;13.73;;;22.50;39.90;;;;;;6177580;28;83135;-46
2020/12/14 08:24:27;;;;;;;28.85;14.95;;;22.40;39.70;;;;;;6176655;28;83438;-47
2020/12/14 08:27:27;;;;;;;26.23;15.73;;;22.40;39.70;;;;;;6177359;27;84172;-46
2020/12/14 08:30:28;;;;;;;408.63;128.05;;;22.50;39.70;;;;;;6174316;28;84565;-46
2020/12/14 08:33:28;;;;;;;813.28;302.75;;;22.40;39.90;;;;;;6171329;28;85902;-46
2020/12/14 08:36:29;;;;;;;979.85;375.90;;;22.50;40.40;;;;;;6174376;28;85543;-49
2020/12/14 08:39:29;;;;;;;927.90;365.75;;;22.50;40.60;;;;;;6173143;28;85646;-47
2020/12/14 08:42:30;;;;;;;856.08;333.88;;;22.50;40.60;;;;;;6151227;27;85862;-46
2020/12/14 08:45:31;;;;;;;749.17;294.30;;;22.60;40.70;;;;;;6169586;28;86230;-45
2020/12/14 08:48:32;;;;;;;679.13;265.52;;;22.60;40.30;;;;;;6143353;27;85828;-46
2020/12/14 08:51:32;;;;;;;616.65;228.38;;;22.60;40.50;;;;;;6174780;28;85909;-49
2020/12/14 08:54:33;;;;;;;544.83;200.13;;;22.60;40.50;;;;;;6162152;27;85805;-48
2020/12/14 08:57:33;;;;;;;506.80;172.75;;;22.70;40.60;;;;;;6173749;28;86993;-47
2020/12/14 09:00:34;;;;;;;468.23;151.65;;;22.70;40.60;;;;;;6171683;28;86491;-46
2020/12/14 09:03:35;;;;;;;402.55;135.07;;;22.70;40.50;;;;;;6170626;28;86786;-46
2020/12/14 09:06:35;;;;;;;351.33;118.65;;;22.70;40.30;;;;;;6152339;27;85873;-45
2020/12/14 09:09:37;;;;;;;318.17;107.35;;;22.70;40.30;;;;;;6173187;28;85861;-47
2020/12/14 09:12:37;;;;;;;271.90;94.60;;;22.70;40.10;;;;;;6172872;27;85599;-46
2020/12/14 09:15:38;;;;;;;245.00;83.63;;;22.70;40.00;;;;;;6174331;28;86338;-46
2020/12/14 09:18:38;;;;;;;225.88;79.72;;;22.70;40.00;;;;;;6176074;27;83400;-46
2020/12/14 09:21:39;;;;;;;202.73;72.97;;;22.80;39.90;;;;;;6174307;28;84115;-44
2020/12/14 09:24:39;;;;;;;185.40;66.05;;;22.80;39.60;;;;;;6166180;28;83531;-46
2020/12/14 09:27:40;;;;;;;178.73;62.30;;;22.80;39.70;;;;;;6175018;28;83834;-46
2020/12/14 09:30:40;;;;;;;164.43;59.08;;;22.80;39.70;;;;;;6173126;28;89672;-49
2020/12/14 09:33:41;;;;;;;142.85;52.20;;;22.80;39.90;;;;;;6173716;28;85350;-46
2020/12/14 09:36:41;;;;;;;137.55;50.50;;;22.80;40.30;;;;;;6175359;28;84276;-44
2020/12/14 09:39:43;;;;;;;126.40;48.15;;;22.80;39.90;;;;;;6177255;28;83164;-44
2020/12/14 09:42:44;;;;;;;109.82;44.03;;;22.80;39.90;;;;;;6150558;27;84180;-44
2020/12/14 09:45:44;;;;;;;107.28;41.30;;;22.70;39.80;;;;;;6170577;28;83544;-45
2020/12/14 09:48:45;;;;;;;114.18;43.83;;;22.80;39.90;;;;;;6174886;28;84457;-45
2020/12/14 09:51:45;;;;;;;120.45;45.20;;;22.80;39.90;;;;;;6174465;28;83398;-45
2020/12/14 09:54:46;;;;;;;114.88;42.33;;;22.80;40.40;;;;;;6172705;27;83379;-46
2020/12/14 09:57:46;;;;;;;105.65;39.10;;;22.80;40.10;;;;;;6173784;28;83178;-47
2020/12/14 10:00:47;;;;;;;103.70;37.88;;;22.80;40.30;;;;;;6174235;27;83366;-44
2020/12/14 10:03:47;;;;;;;92.30;35.97;;;22.80;40.50;;;;;;6173219;28;85418;-45
2020/12/14 10:06:49;;;;;;;85.15;33.28;;;22.80;40.40;;;;;;6174015;28;83863;-45
2020/12/14 10:09:49;;;;;;;92.78;35.15;;;22.80;40.40;;;;;;6176628;27;82904;-46
2020/12/14 10:12:50;;;;;;;83.28;31.92;;;22.80;40.40;;;;;;6171604;28;83366;-46
2020/12/14 10:15:51;;;;;;;79.95;32.35;;;22.80;40.40;;;;;;6172369;28;84734;-47
2020/12/14 10:18:51;;;;;;;78.72;29.27;;;22.80;40.50;;;;;;6170971;28;83269;-45
2020/12/14 10:21:52;;;;;;;73.93;29.35;;;22.80;40.60;;;;;;6181677;27;84480;-47
2020/12/14 10:24:52;;;;;;;65.97;27.00;;;22.70;40.70;;;;;;6172262;28;84126;-50
2020/12/14 10:27:53;;;;;;;64.22;27.23;;;22.70;40.70;;;;;;6175499;28;85785;-45
2020/12/14 10:30:54;;;;;;;69.95;26.88;;;22.70;40.90;;;;;;6175720;27;84013;-47
2020/12/14 10:33:57;;;;;;;60.15;25.38;;;22.60;41.10;;;;;;6175693;28;83769;-46
2020/12/14 10:36:57;;;;;;;54.90;24.75;;;22.60;41.10;;;;;;6174236;27;83580;-46
2020/12/14 10:39:58;;;;;;;63.33;25.00;;;22.60;41.10;;;;;;6168047;28;83532;-48
2020/12/14 10:42:58;;;;;;;51.53;22.85;;;22.60;41.20;;;;;;6153843;27;84205;-47
2020/12/14 10:45:59;;;;;;;52.22;22.05;;;22.60;41.10;;;;;;6164149;28;83334;-46
2020/12/14 10:48:59;;;;;;;47.40;20.75;;;22.50;41.00;;;;;;6171206;28;83616;-48
2020/12/14 10:52:00;;;;;;;48.05;21.10;;;22.50;41.20;;;;;;6173193;28;83701;-46
2020/12/14 10:55:01;;;;;;;43.78;20.92;;;22.50;41.60;;;;;;6175598;27;83020;-49
2020/12/14 10:58:01;;;;;;;48.72;21.40;;;22.50;41.60;;;;;;6167910;28;83327;-47
2020/12/14 11:01:02;;;;;;;49.47;21.55;;;22.40;41.70;;;;;;6169487;27;84138;-48
2020/12/14 11:04:02;;;;;;;46.97;20.48;;;22.40;41.70;;;;;;6173822;28;84356;-49
2020/12/14 11:07:03;;;;;;;44.70;19.95;;;22.40;41.80;;;;;;6166530;28;83280;-46
2020/12/14 11:10:03;;;;;;;47.92;23.00;;;22.40;42.60;;;;;;6171845;28;87144;-46
2020/12/14 11:13:04;;;;;;;44.63;22.20;;;22.40;42.40;;;;;;6175119;28;83385;-47
2020/12/14 11:16:05;;;;;;;51.63;21.23;;;22.40;42.20;;;;;;6174409;28;83780;-46
2020/12/14 11:19:05;;;;;;;41.92;21.08;;;22.30;42.30;;;;;;6164739;27;83446;-47
2020/12/14 11:22:06;;;;;;;46.53;20.77;;;22.30;42.10;;;;;;6172452;28;83507;-47
2020/12/14 11:25:06;;;;;;;40.90;20.30;;;22.30;42.10;;;;;;6173930;28;84480;-46
2020/12/14 11:28:07;;;;;;;44.15;20.13;;;22.30;42.50;;;;;;6187720;28;84831;-48
2020/12/14 11:31:08;;;;;;;38.50;18.23;;;22.30;42.30;;;;;;6174634;27;83349;-46
2020/12/14 11:34:09;;;;;;;39.72;18.98;;;22.30;42.40;;;;;;6168185;28;84035;-46
2020/12/14 11:37:09;;;;;;;51.20;21.08;;;22.30;42.80;;;;;;6169281;28;83779;-47
2020/12/14 11:40:10;;;;;;;57.10;22.00;;;22.30;43.30;;;;;;6168127;28;83282;-47
2020/12/14 11:43:10;;;;;;;77.70;27.65;;;22.30;44.00;;;;;;6174653;28;83145;-46
2020/12/14 11:46:11;;;;;;;74.38;28.00;;;22.30;44.40;;;;;;6173469;28;83546;-46
2020/12/14 11:49:11;;;;;;;90.65;30.48;;;22.30;44.70;;;;;;6172105;28;83355;-48
2020/12/14 11:52:12;;;;;;;104.13;33.05;;;22.30;45.40;;;;;;6172345;27;84476;-50
2020/12/14 11:55:13;;;;;;;114.50;37.10;;;22.30;45.50;;;;;;6174520;28;83371;-46
2020/12/14 11:58:13;;;;;;;120.03;38.08;;;22.30;45.60;;;;;;6151239;28;85791;-46
2020/12/14 12:01:14;;;;;;;106.15;34.15;;;22.30;45.10;;;;;;6170436;28;84564;-46
2020/12/14 12:04:14;;;;;;;93.38;32.72;;;22.40;44.50;;;;;;6171861;28;83230;-46
2020/12/14 12:07:15;;;;;;;98.57;32.50;;;22.40;43.70;;;;;;6171909;28;83543;-47
2020/12/14 12:10:15;;;;;;;88.38;28.38;;;22.40;43.20;;;;;;6176544;27;83090;-46
2020/12/14 12:13:16;;;;;;;85.97;29.92;;;22.30;42.50;;;;;;6175886;28;83299;-46
2020/12/14 12:16:16;;;;;;;79.30;28.52;;;22.30;41.80;;;;;;6179042;27;83808;-47
2020/12/14 12:19:18;;;;;;;82.65;28.85;;;22.30;41.40;;;;;;6166725;28;84486;-46
2020/12/14 12:22:19;;;;;;;62.80;24.67;;;22.40;41.10;;;;;;6165006;28;83270;-46
2020/12/14 12:25:20;;;;;;;64.68;23.13;;;22.40;40.40;;;;;;6174936;27;89887;-45
2020/12/14 12:28:20;;;;;;;61.78;24.02;;;22.50;39.70;;;;;;6177779;28;83739;-46
2020/12/14 12:31:21;;;;;;;58.38;22.08;;;22.50;39.50;;;;;;6176613;28;83206;-49
2020/12/14 12:34:21;;;;;;;52.47;20.67;;;22.50;39.00;;;;;;6165452;28;86436;-51
2020/12/14 12:37:22;;;;;;;48.70;18.55;;;22.60;38.80;;;;;;6170406;28;83638;-50
2020/12/14 12:40:22;;;;;;;55.50;19.95;;;22.60;38.40;;;;;;6176203;27;83230;-46
2020/12/14 12:43:23;;;;;;;47.50;17.40;;;22.70;38.40;;;;;;6176161;28;85282;-47
2020/12/14 12:46:24;;;;;;;42.83;18.10;;;22.70;38.20;;;;;;6168278;28;83068;-47
2020/12/14 12:49:24;;;;;;;41.15;17.25;;;22.70;37.80;;;;;;6172916;28;83520;-49
2020/12/14 12:52:25;;;;;;;41.33;17.17;;;22.70;37.60;;;;;;6175766;28;83300;-49
2020/12/14 12:55:25;;;;;;;36.22;15.48;;;22.80;37.40;;;;;;6169575;28;83165;-49
2020/12/14 12:58:27;;;;;;;43.42;17.33;;;22.80;37.20;;;;;;6172356;27;83539;-49
2020/12/14 13:01:27;;;;;;;31.17;14.00;;;22.80;37.00;;;;;;6173563;28;83820;-46
2020/12/14 13:04:28;;;;;;;34.80;14.55;;;22.80;37.00;;;;;;6168478;28;83441;-47
2020/12/14 13:07:28;;;;;;;35.53;14.07;;;22.80;36.70;;;;;;6175260;28;84357;-48
2020/12/14 13:10:29;;;;;;;30.23;13.48;;;22.80;36.70;;;;;;6176419;28;83377;-47
2020/12/14 13:13:30;;;;;;;30.73;13.93;;;22.80;36.60;;;;;;6176533;28;83764;-48
2020/12/14 13:16:30;;;;;;;29.23;13.23;;;22.80;36.40;;;;;;6175279;28;83262;-49
2020/12/14 13:19:31;;;;;;;31.35;13.88;;;22.80;36.50;;;;;;6175942;27;88541;-49
2020/12/14 13:22:31;;;;;;;32.65;13.48;;;22.90;36.60;;;;;;6168687;28;83310;-49
2020/12/14 13:25:32;;;;;;;32.42;12.63;;;22.80;36.50;;;;;;6173101;28;83656;-50
2020/12/14 13:28:32;;;;;;;24.23;12.02;;;22.80;36.60;;;;;;6150828;27;83859;-50
2020/12/14 13:31:33;;;;;;;24.35;12.02;;;22.80;36.40;;;;;;6170259;28;83202;-48
2020/12/14 13:34:34;;;;;;;25.67;12.48;;;22.80;36.50;;;;;;6169397;28;83772;-48
2020/12/14 13:37:35;;;;;;;26.10;11.88;;;22.80;36.50;;;;;;6163815;28;83892;-48
2020/12/14 13:40:35;;;;;;;22.98;11.15;;;22.80;36.40;;;;;;6165882;28;83315;-49
2020/12/14 13:43:36;;;;;;;27.67;12.50;;;22.80;36.50;;;;;;6172525;28;84224;-47
2020/12/14 13:46:36;;;;;;;24.75;12.73;;;22.80;36.50;;;;;;6168923;28;83235;-49
2020/12/14 13:49:37;;;;;;;21.98;11.77;;;22.80;36.40;;;;;;6174621;27;83345;-48
2020/12/14 13:52:37;;;;;;;36.97;11.85;;;22.70;36.40;;;;;;6174768;28;83470;-49
2020/12/14 13:55:38;;;;;;;23.20;11.32;;;22.70;36.30;;;;;;6170146;28;83626;-50
2020/12/14 13:58:39;;;;;;;22.48;11.40;;;22.80;36.50;;;;;;6178995;27;83238;-51
2020/12/14 14:01:39;;;;;;;27.70;12.43;;;22.70;36.70;;;;;;6167447;28;83314;-46
2020/12/14 14:04:40;;;;;;;22.00;11.57;;;22.70;36.60;;;;;;6174279;28;85494;-48
2020/12/14 14:07:40;;;;;;;21.58;10.88;;;22.70;37.10;;;;;;6174143;28;83442;-49
2020/12/14 14:10:41;;;;;;;24.17;10.73;;;22.70;37.30;;;;;;6173832;28;84096;-51
2020/12/14 14:13:41;;;;;;;20.77;11.20;;;22.70;39.10;;;;;;6172710;28;84709;-49
2020/12/14 14:16:43;;;;;;;18.95;10.70;;;22.80;39.50;;;;;;6173812;28;83240;-48
2020/12/14 14:19:44;;;;;;;15.93;9.88;;;22.70;39.70;;;;;;6159655;28;84465;-49
2020/12/14 14:22:44;;;;;;;17.48;10.15;;;22.70;42.90;;;;;;6178630;28;82774;-47
2020/12/14 14:25:45;;;;;;;16.30;8.82;;;22.70;42.00;;;;;;6175476;27;83822;-50
2020/12/14 14:28:45;;;;;;;16.27;10.07;;;22.70;41.80;;;;;;6177217;28;84045;-50
2020/12/14 14:31:46;;;;;;;16.90;9.25;;;22.70;42.80;;;;;;6168972;28;83875;-51
2020/12/14 14:34:50;;;;;;;17.15;8.70;;;22.70;42.50;;;;;;6174347;28;83078;-51
2020/12/14 14:37:51;;;;;;;15.65;9.18;;;22.70;42.30;;;;;;6172148;27;80617;-48
2020/12/14 14:40:52;;;;;;;16.40;9.50;;;22.60;41.90;;;;;;6166551;28;81347;-50
2020/12/14 14:43:52;;;;;;;15.43;9.07;;;22.60;41.40;;;;;;6163944;28;80679;-53
2020/12/14 14:46:53;;;;;;;18.52;9.05;;;22.70;41.10;;;;;;6172411;28;82427;-50
2020/12/14 14:49:53;;;;;;;15.40;8.80;;;22.60;40.80;;;;;;6176922;27;83178;-48
2020/12/14 14:52:54;;;;;;;14.85;8.75;;;22.60;40.60;;;;;;6177086;28;80787;-51
2020/12/14 14:55:54;;;;;;;14.93;8.90;;;22.60;40.40;;;;;;6176420;28;80637;-48
2020/12/14 14:58:55;;;;;;;16.48;8.98;;;22.60;40.00;;;;;;6177615;28;81164;-52
2020/12/14 15:01:55;;;;;;;14.57;8.27;;;22.60;39.60;;;;;;6173539;27;84249;-48
2020/12/14 15:04:56;;;;;;;16.38;8.85;;;22.60;39.50;;;;;;6175406;28;80718;-48
2020/12/14 15:07:57;;;;;;;16.05;8.93;;;22.60;39.10;;;;;;6176067;27;81634;-52
2020/12/14 15:10:58;;;;;;;17.35;8.88;;;22.60;39.00;;;;;;6170332;28;80721;-48
2020/12/14 15:13:59;;;;;;;13.95;8.23;;;22.60;38.90;;;;;;6170703;27;83755;-50
2020/12/14 15:16:59;;;;;;;15.73;9.35;;;22.60;38.90;;;;;;6174078;28;80837;-48